Time;durP1;ratioP1;P1;durP2;ratioP2;P2;SDS_P1;SDS_P2;PMS_P1;PMS_P2;Temp;Humidity;BMP_temperature;BMP_pressure;BME280_temperature;BME280_humidity;BME280_pressure;Samples;Min_cycle;Max_cycle;Signal;HPM_P1;HPM_P2
2022/05/15 00:00:52;;;;;;;4.85;3.58;;;11.40;92.50;;;;;;5076390;28;20031;-87
2022/05/15 00:03:21;;;;;;;5.50;3.70;;;11.40;92.40;;;;;;5076176;28;20029;-87
2022/05/15 00:05:55;;;;;;;5.03;4.00;;;11.40;93.00;;;;;;5075824;28;20463;-87
2022/05/15 00:08:22;;;;;;;6.03;3.78;;;11.40;93.00;;;;;;5075761;28;20029;-87
2022/05/15 00:10:48;;;;;;;4.75;4.05;;;11.40;93.10;;;;;;5074810;28;20031;-87
2022/05/15 00:13:15;;;;;;;8.07;4.07;;;11.40;93.30;;;;;;5075771;28;20025;-87
2022/05/15 00:15:40;;;;;;;7.15;3.55;;;11.40;93.30;;;;;;5074236;28;20115;-88
2022/05/15 00:18:08;;;;;;;6.07;3.78;;;11.40;93.50;;;;;;5075910;28;20451;-86
2022/05/15 00:20:35;;;;;;;9.88;4.10;;;11.30;93.70;;;;;;5075754;28;20104;-87
2022/05/15 00:23:01;;;;;;;9.20;4.03;;;11.30;93.90;;;;;;5074572;28;20037;-86
2022/05/15 00:25:29;;;;;;;5.25;3.65;;;11.30;94.30;;;;;;5075470;28;20032;-87
2022/05/15 00:27:55;;;;;;;6.22;3.78;;;11.30;94.30;;;;;;5074128;28;20027;-87
2022/05/15 00:30:21;;;;;;;8.07;4.00;;;11.20;94.60;;;;;;5074304;28;20055;-87
2022/05/15 00:32:47;;;;;;;8.57;4.20;;;11.20;94.80;;;;;;5075770;28;20021;-87
2022/05/15 00:35:14;;;;;;;6.15;3.80;;;11.10;95.10;;;;;;5074184;28;20048;-87
2022/05/15 00:37:39;;;;;;;5.85;4.22;;;11.10;95.40;;;;;;5074263;28;20082;-88
2022/05/15 00:40:09;;;;;;;7.25;4.60;;;11.00;95.60;;;;;;5074205;28;20416;-87
2022/05/15 00:42:35;;;;;;;7.68;4.20;;;11.00;95.80;;;;;;5074105;28;20032;-87
2022/05/15 00:45:03;;;;;;;4.07;3.55;;;11.00;95.90;;;;;;5074065;28;20417;-87
2022/05/15 00:47:29;;;;;;;8.57;4.43;;;11.00;96.00;;;;;;5075184;28;20424;-87
2022/05/15 00:49:55;;;;;;;4.45;3.92;;;10.90;96.40;;;;;;5075123;28;20032;-87
2022/05/15 00:52:27;;;;;;;7.97;4.32;;;10.80;96.70;;;;;;5074976;28;20060;-88
2022/05/15 00:55:00;;;;;;;6.25;4.38;;;10.80;97.20;;;;;;5074081;28;20035;-87
2022/05/15 00:57:36;;;;;;;8.27;4.63;;;10.80;97.20;;;;;;5073912;28;20051;-87
2022/05/15 01:00:13;;;;;;;6.22;3.97;;;10.80;97.50;;;;;;5073962;28;20020;-87
2022/05/15 01:02:42;;;;;;;8.85;4.50;;;10.70;97.50;;;;;;5074836;28;20382;-88
2022/05/15 01:05:13;;;;;;;5.60;4.37;;;10.70;97.70;;;;;;5073305;28;20463;-87
2022/05/15 01:07:39;;;;;;;6.88;4.03;;;10.70;98.10;;;;;;5074789;28;20584;-87
2022/05/15 01:10:07;;;;;;;7.35;4.15;;;10.70;98.10;;;;;;5073996;28;20024;-87
2022/05/15 01:12:33;;;;;;;7.18;4.30;;;10.70;98.30;;;;;;5074670;28;20047;-87
2022/05/15 01:15:00;;;;;;;9.88;4.53;;;10.60;98.40;;;;;;5073504;28;20085;-87
2022/05/15 01:17:26;;;;;;;8.88;4.30;;;10.60;98.80;;;;;;5073732;28;20029;-87
2022/05/15 01:20:02;;;;;;;7.50;4.55;;;10.50;99.20;;;;;;5074466;28;20047;-86
2022/05/15 01:22:28;;;;;;;7.78;4.70;;;10.60;99.40;;;;;;5073099;28;20025;-86
2022/05/15 01:24:54;;;;;;;9.07;4.75;;;10.50;99.50;;;;;;5073469;28;20034;-87
2022/05/15 01:27:20;;;;;;;10.18;4.53;;;10.60;99.70;;;;;;5073205;28;20029;-87
2022/05/15 01:29:47;;;;;;;8.35;4.40;;;10.60;99.70;;;;;;5073695;28;20024;-87
2022/05/15 01:32:13;;;;;;;6.55;4.30;;;10.60;99.60;;;;;;5073314;28;20027;-87
2022/05/15 01:34:40;;;;;;;7.80;4.50;;;10.60;99.60;;;;;;5073161;28;20052;-87
2022/05/15 01:37:07;;;;;;;6.85;4.40;;;10.60;99.90;;;;;;5073352;28;20124;-87
2022/05/15 01:39:33;;;;;;;8.82;4.10;;;10.60;99.90;;;;;;5072439;28;20036;-87
2022/05/15 01:42:00;;;;;;;7.18;4.43;;;10.60;99.90;;;;;;5074313;28;20028;-87
2022/05/15 01:44:26;;;;;;;7.35;4.68;;;10.60;99.90;;;;;;5074185;28;20028;-87
2022/05/15 01:46:52;;;;;;;6.50;4.20;;;10.60;99.90;;;;;;5073108;28;20020;-87
2022/05/15 01:49:19;;;;;;;8.52;4.47;;;10.60;99.90;;;;;;5072910;28;20387;-87
2022/05/15 01:51:45;;;;;;;11.68;4.50;;;10.50;99.90;;;;;;5074256;28;20474;-87
2022/05/15 01:54:12;;;;;;;10.13;4.80;;;10.50;99.90;;;;;;5074358;28;20028;-87
2022/05/15 01:56:39;;;;;;;8.63;4.80;;;10.50;99.90;;;;;;5073012;28;20033;-87
2022/05/15 01:59:06;;;;;;;9.25;4.18;;;10.50;99.90;;;;;;5072925;28;20029;-87
2022/05/15 02:01:32;;;;;;;8.77;4.35;;;10.40;99.90;;;;;;5074082;28;20021;-88
2022/05/15 02:03:58;;;;;;;7.35;4.60;;;10.40;99.90;;;;;;5074491;28;20029;-89
2022/05/15 02:06:23;;;;;;;9.82;4.90;;;10.40;99.90;;;;;;5072860;28;20051;-87
2022/05/15 02:08:49;;;;;;;6.10;4.60;;;10.30;99.90;;;;;;5072998;28;20497;-87
2022/05/15 02:11:15;;;;;;;12.80;5.30;;;10.30;99.90;;;;;;5073167;28;20048;-87
2022/05/15 02:13:41;;;;;;;12.00;5.40;;;10.30;99.90;;;;;;5074066;28;20411;-87
2022/05/15 02:16:07;;;;;;;13.35;5.00;;;10.30;99.90;;;;;;5072873;28;20387;-87
2022/05/15 02:18:34;;;;;;;13.07;6.82;;;10.20;99.90;;;;;;5072797;28;20029;-87
2022/05/15 02:21:00;;;;;;;14.00;7.63;;;10.10;99.90;;;;;;5072968;28;20025;-89
2022/05/15 02:23:26;;;;;;;15.15;7.10;;;10.10;99.90;;;;;;5073870;28;20024;-88
2022/05/15 02:25:53;;;;;;;12.40;7.15;;;10.10;99.90;;;;;;5072967;28;20111;-88
2022/05/15 02:28:19;;;;;;;15.40;7.70;;;10.10;99.90;;;;;;5072458;28;20438;-87
2022/05/15 02:30:46;;;;;;;11.40;5.60;;;10.00;99.90;;;;;;5072785;28;20020;-87
2022/05/15 02:33:12;;;;;;;10.88;5.60;;;10.00;99.90;;;;;;5072972;28;20029;-87
2022/05/15 02:35:38;;;;;;;9.40;5.53;;;10.00;99.90;;;;;;5072627;28;20075;-87
2022/05/15 02:38:04;;;;;;;11.48;5.50;;;10.00;99.90;;;;;;5072792;28;20463;-88
2022/05/15 02:40:31;;;;;;;5.22;4.20;;;9.90;99.90;;;;;;5073657;28;20028;-87
2022/05/15 02:42:56;;;;;;;8.88;4.72;;;9.90;99.90;;;;;;5072578;28;20115;-87
2022/05/15 02:45:23;;;;;;;8.10;4.07;;;9.90;99.90;;;;;;5072600;28;20107;-89
2022/05/15 02:47:50;;;;;;;11.30;4.55;;;9.90;99.90;;;;;;5072615;28;20032;-87
2022/05/15 02:53:00;;;;;;;10.55;5.22;;;9.90;99.90;;;;;;5077654;28;20027;-87
2022/05/15 02:55:26;;;;;;;10.32;4.68;;;9.90;99.90;;;;;;5076294;28;20020;-89
2022/05/15 02:57:53;;;;;;;7.10;4.28;;;9.90;99.90;;;;;;5077182;28;20020;-87
2022/05/15 03:00:21;;;;;;;6.13;4.40;;;9.90;99.90;;;;;;5077305;28;20028;-87
2022/05/15 03:02:47;;;;;;;10.77;4.38;;;10.00;99.90;;;;;;5076182;28;20031;-88
2022/05/15 03:05:15;;;;;;;8.32;4.82;;;10.00;99.90;;;;;;5075983;28;20024;-87
2022/05/15 03:07:43;;;;;;;8.05;4.32;;;10.00;99.90;;;;;;5075852;28;20021;-87
2022/05/15 03:10:11;;;;;;;6.03;4.38;;;10.00;99.90;;;;;;5077032;28;20425;-87
2022/05/15 03:12:37;;;;;;;8.48;4.50;;;10.10;99.90;;;;;;5077017;28;20074;-87
2022/05/15 03:15:05;;;;;;;6.05;4.00;;;10.10;99.90;;;;;;5077044;28;20421;-87
2022/05/15 03:17:34;;;;;;;7.65;4.20;;;10.10;99.90;;;;;;5076897;28;20025;-88
2022/05/15 03:20:04;;;;;;;6.68;4.32;;;10.20;99.90;;;;;;5075869;28;20028;-88
2022/05/15 03:22:30;;;;;;;7.88;4.35;;;10.20;99.90;;;;;;5075766;28;20020;-87
2022/05/15 03:24:56;;;;;;;11.13;4.50;;;10.20;99.90;;;;;;5076750;28;20035;-88
2022/05/15 03:27:22;;;;;;;7.63;4.18;;;10.20;99.90;;;;;;5075601;28;20555;-87
2022/05/15 03:29:47;;;;;;;7.90;4.78;;;10.20;99.90;;;;;;5075583;28;20024;-87
2022/05/15 03:32:13;;;;;;;8.45;4.07;;;10.30;99.90;;;;;;5076799;28;20052;-87
2022/05/15 03:34:39;;;;;;;5.88;4.05;;;10.30;99.90;;;;;;5076481;28;20045;-87
2022/05/15 03:37:05;;;;;;;9.85;4.75;;;10.40;99.90;;;;;;5075386;28;20029;-88
2022/05/15 03:39:31;;;;;;;5.65;4.13;;;10.40;99.90;;;;;;5076353;28;20479;-86
2022/05/15 03:41:57;;;;;;;9.18;4.70;;;10.50;99.90;;;;;;5075507;28;20107;-87
2022/05/15 03:44:23;;;;;;;7.38;3.85;;;10.50;99.90;;;;;;5075465;28;20382;-88
2022/05/15 03:46:48;;;;;;;5.85;3.58;;;10.60;99.90;;;;;;5075094;28;20111;-86
2022/05/15 03:49:14;;;;;;;7.90;3.85;;;10.70;99.90;;;;;;5075351;28;20024;-88
2022/05/15 03:51:41;;;;;;;6.82;3.63;;;10.70;99.90;;;;;;5075360;28;20372;-92
2022/05/15 03:54:07;;;;;;;7.20;4.03;;;10.80;99.90;;;;;;5075128;28;20029;-89
2022/05/15 03:56:50;;;;;;;7.05;3.75;;;10.90;99.90;;;;;;5075064;28;20083;-88
2022/05/15 03:59:29;;;;;;;9.98;4.30;;;10.90;99.90;;;;;;5076261;28;20474;-88
2022/05/15 04:01:55;;;;;;;6.53;3.65;;;11.00;99.90;;;;;;5075740;28;20039;-88
2022/05/15 04:04:21;;;;;;;5.70;3.72;;;11.10;99.90;;;;;;5076138;28;20518;-87
2022/05/15 04:06:46;;;;;;;3.88;3.50;;;11.10;99.90;;;;;;5074808;28;20032;-87
2022/05/15 04:09:13;;;;;;;6.57;3.58;;;11.20;99.90;;;;;;5075911;28;20052;-87
2022/05/15 04:11:39;;;;;;;5.88;3.70;;;11.30;99.90;;;;;;5074689;28;20131;-89
2022/05/15 04:14:05;;;;;;;8.25;3.95;;;11.40;99.90;;;;;;5075988;28;20023;-89
2022/05/15 04:16:31;;;;;;;8.20;3.78;;;11.50;99.90;;;;;;5074867;28;20482;-89
2022/05/15 04:18:57;;;;;;;7.75;4.35;;;11.50;99.90;;;;;;5074684;28;20028;-88
2022/05/15 04:21:24;;;;;;;7.65;3.97;;;11.60;99.90;;;;;;5075745;28;20051;-88
2022/05/15 04:23:50;;;;;;;6.30;3.70;;;11.70;99.90;;;;;;5075700;28;20382;-88
2022/05/15 04:26:16;;;;;;;7.13;3.53;;;11.90;99.90;;;;;;5074418;28;20027;-87
2022/05/15 04:28:42;;;;;;;7.43;3.90;;;11.90;99.90;;;;;;5075690;28;20024;-88
2022/05/15 04:31:08;;;;;;;11.10;4.07;;;12.10;99.90;;;;;;5074528;28;20028;-87
2022/05/15 04:33:34;;;;;;;5.40;3.80;;;12.20;99.90;;;;;;5074507;28;20041;-88
2022/05/15 04:36:00;;;;;;;4.70;3.38;;;12.40;99.90;;;;;;5074221;28;20052;-87
2022/05/15 04:38:26;;;;;;;7.25;3.70;;;12.50;99.90;;;;;;5075300;28;20020;-88
2022/05/15 04:40:52;;;;;;;9.00;3.50;;;12.60;99.90;;;;;;5074009;28;20027;-88
2022/05/15 04:43:18;;;;;;;6.72;3.38;;;12.70;99.70;;;;;;5074011;28;20028;-86
2022/05/15 04:45:45;;;;;;;7.30;3.45;;;12.80;99.70;;;;;;5073877;28;20027;-88
2022/05/15 04:48:11;;;;;;;8.68;3.65;;;13.00;99.00;;;;;;5074930;28;20020;-89
2022/05/15 04:50:38;;;;;;;7.10;3.70;;;13.10;98.70;;;;;;5073922;28;20375;-88
2022/05/15 04:53:04;;;;;;;4.70;3.10;;;13.20;98.50;;;;;;5074976;28;20025;-86
2022/05/15 04:55:31;;;;;;;12.23;3.58;;;13.30;98.40;;;;;;5073802;28;20027;-87
2022/05/15 04:57:56;;;;;;;6.10;2.97;;;13.50;97.80;;;;;;5074898;28;20027;-89
2022/05/15 05:00:22;;;;;;;7.60;3.20;;;13.60;97.50;;;;;;5073749;28;20025;-87
2022/05/15 05:02:48;;;;;;;7.47;2.85;;;13.70;97.00;;;;;;5074701;28;20028;-88
2022/05/15 05:05:15;;;;;;;6.28;3.33;;;13.90;96.60;;;;;;5074746;28;20028;-87
2022/05/15 05:07:40;;;;;;;6.25;2.90;;;14.00;96.70;;;;;;5074834;28;20371;-86
2022/05/15 05:10:08;;;;;;;11.98;3.35;;;14.10;96.60;;;;;;5073485;28;20023;-87
2022/05/15 05:12:34;;;;;;;4.97;2.90;;;14.30;95.80;;;;;;5074240;28;20556;-86
2022/05/15 05:14:59;;;;;;;6.43;3.17;;;14.40;95.90;;;;;;5073034;28;20024;-87
2022/05/15 05:17:26;;;;;;;6.45;2.75;;;14.50;95.30;;;;;;5073142;28;20111;-87
2022/05/15 05:19:52;;;;;;;5.60;2.78;;;14.60;94.90;;;;;;5073274;28;20112;-88
2022/05/15 05:22:18;;;;;;;6.75;3.00;;;14.70;94.40;;;;;;5072944;28;20064;-86
2022/05/15 05:24:43;;;;;;;6.00;2.83;;;14.80;93.80;;;;;;5074716;28;20122;-87
2022/05/15 05:27:09;;;;;;;7.53;3.05;;;14.80;93.50;;;;;;5073021;28;20046;-87
2022/05/15 05:29:35;;;;;;;10.55;2.92;;;14.90;93.10;;;;;;5073121;28;20021;-86
2022/05/15 05:32:02;;;;;;;8.40;3.00;;;15.00;93.00;;;;;;5074358;28;20028;-86
2022/05/15 05:34:27;;;;;;;5.10;3.10;;;15.10;92.80;;;;;;5074420;28;20078;-87
2022/05/15 05:36:54;;;;;;;8.23;3.17;;;15.20;92.90;;;;;;5073192;28;20024;-88
2022/05/15 05:39:21;;;;;;;10.27;3.35;;;15.30;92.20;;;;;;5074307;28;20391;-88
2022/05/15 05:41:47;;;;;;;5.78;3.08;;;15.50;92.50;;;;;;5073231;28;20111;-87
2022/05/15 05:44:13;;;;;;;12.32;3.10;;;15.70;92.00;;;;;;5074265;28;20024;-87
2022/05/15 05:46:39;;;;;;;14.82;3.72;;;15.90;90.90;;;;;;5074018;28;20485;-87
2022/05/15 05:49:05;;;;;;;8.13;3.08;;;15.90;90.50;;;;;;5073011;28;20028;-87
2022/05/15 05:51:30;;;;;;;12.32;3.20;;;16.10;90.50;;;;;;5072999;28;20108;-87
2022/05/15 05:53:56;;;;;;;6.03;3.10;;;16.30;90.30;;;;;;5074281;28;20055;-87
2022/05/15 05:56:22;;;;;;;6.18;3.05;;;16.40;89.40;;;;;;5072988;28;20025;-88
2022/05/15 05:58:48;;;;;;;5.72;2.95;;;16.20;88.70;;;;;;5072964;28;20501;-86
2022/05/15 06:01:14;;;;;;;9.00;3.22;;;16.30;89.00;;;;;;5073879;28;20502;-87
2022/05/15 06:06:24;;;;;;;6.47;2.90;;;16.40;89.10;;;;;;5074205;28;20086;-87
2022/05/15 06:08:50;;;;;;;8.20;3.55;;;16.40;88.60;;;;;;5073867;28;20025;-87
2022/05/15 06:11:16;;;;;;;4.30;3.03;;;16.40;86.90;;;;;;5074071;28;20028;-86
2022/05/15 06:13:42;;;;;;;9.13;3.10;;;16.50;88.00;;;;;;5073800;28;20027;-87
2022/05/15 06:16:08;;;;;;;10.00;3.30;;;16.60;87.40;;;;;;5072707;28;20029;-85
2022/05/15 06:18:35;;;;;;;9.60;3.22;;;16.70;86.80;;;;;;5073942;28;20042;-87
2022/05/15 06:21:01;;;;;;;9.00;3.30;;;16.70;85.70;;;;;;5072765;28;20025;-87
2022/05/15 06:23:26;;;;;;;7.55;2.92;;;16.60;85.00;;;;;;5072896;28;20052;-86
2022/05/15 06:25:52;;;;;;;6.88;2.97;;;16.80;86.20;;;;;;5076946;28;20082;-87
2022/05/15 06:28:19;;;;;;;8.85;2.83;;;17.10;84.70;;;;;;5078040;28;20024;-89
2022/05/15 06:30:45;;;;;;;5.35;2.50;;;17.40;83.50;;;;;;5076752;28;20028;-89
2022/05/15 06:33:11;;;;;;;7.68;3.00;;;17.60;81.70;;;;;;5077780;28;20391;-86
2022/05/15 06:35:37;;;;;;;4.63;2.80;;;17.60;80.00;;;;;;5076453;28;20425;-86
2022/05/15 06:38:05;;;;;;;6.60;2.92;;;17.80;80.50;;;;;;5076284;28;20035;-86
2022/05/15 06:40:31;;;;;;;7.90;2.92;;;17.90;80.30;;;;;;5076702;28;20505;-90
2022/05/15 06:42:59;;;;;;;8.27;3.05;;;18.00;79.90;;;;;;5077711;28;20383;-86
2022/05/15 06:45:27;;;;;;;5.22;2.85;;;18.00;79.20;;;;;;5077270;28;20027;-87
2022/05/15 06:47:53;;;;;;;9.40;2.90;;;18.00;79.70;;;;;;5076400;28;20111;-90
2022/05/15 06:50:19;;;;;;;6.22;3.10;;;17.90;78.70;;;;;;5076186;28;20021;-87
2022/05/15 06:52:45;;;;;;;5.45;3.22;;;18.00;78.90;;;;;;5076486;28;20028;-88
2022/05/15 06:55:14;;;;;;;7.30;3.47;;;18.20;79.00;;;;;;5077680;28;20025;-87
2022/05/15 06:57:41;;;;;;;6.88;3.22;;;18.00;79.10;;;;;;5077410;28;20085;-90
2022/05/15 07:00:14;;;;;;;6.18;2.90;;;18.00;79.30;;;;;;5077345;28;20079;-88
2022/05/15 07:02:43;;;;;;;10.52;3.20;;;18.10;79.70;;;;;;5075899;28;20494;-88
2022/05/15 07:05:10;;;;;;;7.47;3.38;;;18.30;80.10;;;;;;5077140;28;20021;-87
2022/05/15 07:07:37;;;;;;;8.68;2.75;;;18.40;78.90;;;;;;5077152;28;20111;-87
2022/05/15 07:10:05;;;;;;;6.35;2.80;;;18.60;76.30;;;;;;5075798;28;20552;-93
2022/05/15 07:12:31;;;;;;;8.43;3.03;;;18.40;73.70;;;;;;5075825;28;20025;-88
2022/05/15 07:14:57;;;;;;;4.68;2.63;;;18.40;75.40;;;;;;5075719;28;20103;-86
2022/05/15 07:17:22;;;;;;;10.07;3.05;;;18.50;74.90;;;;;;5075648;28;20051;-87
2022/05/15 07:19:48;;;;;;;6.28;2.60;;;18.60;74.50;;;;;;5075766;28;20021;-93
2022/05/15 07:22:14;;;;;;;5.63;3.00;;;18.50;73.10;;;;;;5075864;28;20029;-90
2022/05/15 07:24:40;;;;;;;9.90;2.70;;;18.40;73.50;;;;;;5076003;28;20383;-90
2022/05/15 07:27:09;;;;;;;5.85;2.80;;;18.30;73.20;;;;;;5076697;28;20025;-88
2022/05/15 07:29:36;;;;;;;9.97;2.70;;;18.30;72.70;;;;;;5076305;28;20017;-92
2022/05/15 07:32:07;;;;;;;8.02;2.60;;;18.40;72.60;;;;;;5075441;28;20025;-88
2022/05/15 07:34:34;;;;;;;5.22;2.60;;;18.30;72.30;;;;;;5075627;28;20044;-87
2022/05/15 07:37:00;;;;;;;14.27;2.78;;;18.20;72.70;;;;;;5075348;28;20364;-90
2022/05/15 07:39:26;;;;;;;6.88;2.38;;;18.20;72.90;;;;;;5076516;28;20074;-88
2022/05/15 07:41:51;;;;;;;7.97;2.70;;;18.10;72.50;;;;;;5075528;28;20032;-86
2022/05/15 07:44:18;;;;;;;4.28;2.20;;;18.00;73.40;;;;;;5076419;28;20475;-88
2022/05/15 07:46:44;;;;;;;7.65;2.50;;;17.90;72.90;;;;;;5076392;28;20463;-87
2022/05/15 07:49:10;;;;;;;7.35;2.75;;;17.90;72.80;;;;;;5075385;28;20024;-88
2022/05/15 07:51:38;;;;;;;3.65;2.40;;;18.00;72.80;;;;;;5075175;28;20082;-92
2022/05/15 07:54:04;;;;;;;5.57;2.88;;;17.80;73.10;;;;;;5075116;28;20032;-88
2022/05/15 07:56:29;;;;;;;6.78;2.60;;;17.80;74.30;;;;;;5075165;28;20025;-86
2022/05/15 07:58:55;;;;;;;6.05;2.70;;;17.90;74.00;;;;;;5074904;28;20122;-88
2022/05/15 08:01:21;;;;;;;8.00;2.67;;;17.90;72.80;;;;;;5076200;28;20103;-89
2022/05/15 08:03:47;;;;;;;5.45;2.47;;;18.00;73.00;;;;;;5075019;28;20056;-89
2022/05/15 08:09:03;;;;;;;4.15;2.78;;;18.40;70.90;;;;;;5076512;28;20039;-87
2022/05/15 08:11:29;;;;;;;5.03;2.85;;;18.70;72.60;;;;;;5076184;28;20021;-88
2022/05/15 08:13:56;;;;;;;5.40;2.17;;;18.90;70.90;;;;;;5075066;28;20036;-87
2022/05/15 08:16:23;;;;;;;5.43;2.53;;;18.80;70.50;;;;;;5074724;28;20111;-88
2022/05/15 08:24:17;;;;;;;4.72;2.20;;;18.40;70.50;;;;;;5075660;28;20031;-90
2022/05/15 08:26:44;;;;;;;5.40;2.38;;;18.30;69.40;;;;;;5076024;28;20414;-88
2022/05/15 08:29:10;;;;;;;7.15;2.40;;;18.30;69.20;;;;;;5074540;28;20028;-87
2022/05/15 08:31:36;;;;;;;3.65;2.10;;;18.40;68.80;;;;;;5074427;28;20020;-88
2022/05/15 08:34:03;;;;;;;6.15;2.38;;;18.50;68.30;;;;;;5074155;28;20044;-86
2022/05/15 08:36:28;;;;;;;5.78;2.08;;;18.60;68.40;;;;;;5074163;28;20029;-87
2022/05/15 08:38:54;;;;;;;5.22;2.10;;;18.70;67.80;;;;;;5075470;28;20035;-88
2022/05/15 08:41:41;;;;;;;3.67;2.03;;;18.70;67.30;;;;;;5074123;28;20024;-86
2022/05/15 08:44:07;;;;;;;3.45;2.03;;;18.90;67.60;;;;;;5074006;28;20020;-87
2022/05/15 08:46:32;;;;;;;11.65;2.42;;;19.00;67.20;;;;;;5075193;28;20062;-89
2022/05/15 08:49:12;;;;;;;5.40;2.20;;;19.00;65.90;;;;;;5075143;28;20024;-88
2022/05/15 08:51:47;;;;;;;4.20;1.90;;;19.10;65.40;;;;;;5073805;28;20098;-86
2022/05/15 08:54:13;;;;;;;2.58;1.80;;;19.50;65.50;;;;;;5073812;28;20052;-86
2022/05/15 08:56:47;;;;;;;5.25;2.20;;;19.80;64.30;;;;;;5073987;28;20029;-86
2022/05/15 08:59:27;;;;;;;7.32;2.25;;;19.70;63.70;;;;;;5074838;28;20052;-86
2022/05/15 09:01:55;;;;;;;7.20;2.10;;;19.40;65.70;;;;;;5075034;28;20098;-86
2022/05/15 09:04:21;;;;;;;5.65;2.60;;;19.30;66.20;;;;;;5074635;28;20021;-89
2022/05/15 09:07:10;;;;;;;15.70;11.50;;;19.30;66.30;;;;;;5074756;28;20463;-86
2022/05/15 09:10:00;;;;;;;35.67;21.10;;;19.20;67.60;;;;;;5073475;28;20025;-88
2022/05/15 09:12:26;;;;;;;34.67;16.98;;;19.20;65.90;;;;;;5074873;28;20031;-87
2022/05/15 09:15:01;;;;;;;38.17;15.88;;;19.30;65.80;;;;;;5074815;28;20379;-86
2022/05/15 09:17:51;;;;;;;8.27;3.10;;;19.30;64.30;;;;;;5073590;28;20491;-88
2022/05/15 09:20:29;;;;;;;84.57;48.00;;;19.10;63.90;;;;;;5074726;28;20033;-88
2022/05/15 09:23:22;;;;;;;20.23;12.38;;;19.10;63.70;;;;;;5073478;28;20020;-88
2022/05/15 09:25:57;;;;;;;9.45;5.32;;;19.10;64.40;;;;;;5073368;28;20039;-88
2022/05/15 09:28:26;;;;;;;4.65;2.30;;;19.20;64.40;;;;;;5073536;28;20112;-88
2022/05/15 09:30:55;;;;;;;4.95;2.55;;;19.20;65.20;;;;;;5074680;28;20012;-88
2022/05/15 09:33:29;;;;;;;7.72;2.83;;;19.40;65.40;;;;;;5074609;28;20020;-87
2022/05/15 09:36:20;;;;;;;4.93;2.40;;;19.70;64.40;;;;;;5073265;28;20056;-89
2022/05/15 09:38:47;;;;;;;4.05;2.08;;;19.90;64.00;;;;;;5073545;28;20352;-89
2022/05/15 09:44:35;;;;;;;6.20;2.33;;;20.30;61.40;;;;;;5074665;28;20107;-88
2022/05/15 09:47:35;;;;;;;2.08;1.60;;;20.30;60.40;;;;;;5072855;28;20135;-86
2022/05/15 09:50:01;;;;;;;;;;;20.00;61.20;;;;;;5072967;28;20386;-84
2022/05/15 09:52:30;;;;;;;4.45;2.20;;;19.80;61.40;;;;;;5072711;28;19904;-85
2022/05/15 09:55:09;;;;;;;6.87;2.70;;;19.60;61.60;;;;;;5072400;28;20017;-85
2022/05/15 09:57:36;;;;;;;5.70;2.17;;;19.80;62.80;;;;;;5072612;28;20111;-86
2022/05/15 10:00:09;;;;;;;4.50;2.15;;;20.00;62.10;;;;;;5071777;28;20039;-85
2022/05/15 10:02:50;;;;;;;3.47;2.20;;;20.10;61.90;;;;;;5072474;28;20086;-85
2022/05/15 10:05:20;;;;;;;5.80;2.75;;;20.50;62.40;;;;;;5072725;28;20102;-86
2022/05/15 10:08:19;;;;;;;3.47;2.08;;;20.50;59.10;;;;;;5072676;28;20028;-89
2022/05/15 10:11:18;;;;;;;4.47;2.50;;;20.20;59.60;;;;;;5072759;28;20483;-86
2022/05/15 10:13:50;;;;;;;4.97;2.83;;;20.20;60.40;;;;;;5072656;28;20253;-86
2022/05/15 10:16:31;;;;;;;5.45;2.40;;;20.10;60.40;;;;;;5074098;28;20044;-86
2022/05/15 10:19:03;;;;;;;5.38;2.60;;;19.80;61.90;;;;;;5072021;28;20029;-87
2022/05/15 10:21:40;;;;;;;4.18;2.28;;;19.60;62.80;;;;;;5072595;28;20386;-87
2022/05/15 10:24:16;;;;;;;7.50;2.33;;;19.40;63.50;;;;;;5073825;28;20029;-88
2022/05/15 10:27:02;;;;;;;4.53;2.70;;;19.20;63.80;;;;;;5073715;28;20497;-88
2022/05/15 10:29:36;;;;;;;4.78;2.80;;;19.30;64.10;;;;;;5073711;28;20021;-87
2022/05/15 10:32:13;;;;;;;4.45;2.60;;;19.60;64.10;;;;;;5072326;28;20032;-87
2022/05/15 10:34:41;;;;;;;7.38;2.42;;;19.80;63.40;;;;;;5072363;28;20483;-86
2022/05/15 10:37:40;;;;;;;4.45;2.30;;;20.10;63.20;;;;;;5072419;28;20166;-87
2022/05/15 10:40:25;;;;;;;4.18;2.50;;;20.40;62.10;;;;;;5072623;28;20020;-86
2022/05/15 10:42:57;;;;;;;5.55;2.20;;;20.60;61.60;;;;;;5072209;28;20390;-88
2022/05/15 10:45:50;;;;;;;5.65;2.40;;;20.50;61.10;;;;;;5072475;28;20028;-87
2022/05/15 10:48:42;;;;;;;8.07;3.47;;;20.30;61.40;;;;;;5073537;28;20449;-87
2022/05/15 10:51:20;;;;;;;16.92;7.18;;;20.20;60.80;;;;;;5072423;28;20034;-87
2022/05/15 11:00:01;;;;;;;5.35;3.10;;;19.70;62.20;;;;;;5073460;28;20074;-87
2022/05/15 11:02:51;;;;;;;10.15;5.00;;;19.80;62.70;;;;;;5073643;28;20103;-86
2022/05/15 11:05:27;;;;;;;5.22;2.90;;;19.80;61.90;;;;;;5072649;28;20029;-87
2022/05/15 11:07:53;;;;;;;10.45;4.93;;;19.90;62.90;;;;;;5072426;28;20082;-88
2022/05/15 11:10:43;;;;;;;8.48;3.72;;;19.90;62.80;;;;;;5072399;28;20016;-87
2022/05/15 11:13:12;;;;;;;6.25;3.22;;;19.80;62.70;;;;;;5065387;28;20112;-88
2022/05/15 11:15:57;;;;;;;7.57;3.30;;;19.80;63.60;;;;;;5075845;28;20024;-87
2022/05/15 11:18:38;;;;;;;9.57;4.15;;;19.60;62.20;;;;;;5075415;28;20043;-87
2022/05/15 11:21:10;;;;;;;8.68;4.78;;;19.50;63.10;;;;;;5075538;28;20093;-88
2022/05/15 11:23:45;;;;;;;7.80;4.63;;;19.60;62.90;;;;;;5075107;28;20070;-86
2022/05/15 11:26:40;;;;;;;5.95;3.22;;;19.80;63.00;;;;;;5076397;28;20056;-88
2022/05/15 11:29:14;;;;;;;6.07;2.40;;;20.00;62.20;;;;;;5075468;28;20425;-87
2022/05/15 11:31:48;;;;;;;4.20;2.40;;;20.20;61.90;;;;;;5075290;28;20429;-88
2022/05/15 11:34:14;;;;;;;4.22;2.75;;;20.30;61.20;;;;;;5075316;28;20094;-87
2022/05/15 11:36:49;;;;;;;6.88;2.90;;;20.50;61.80;;;;;;5075135;28;20032;-86
2022/05/15 11:39:14;;;;;;;14.55;9.30;;;20.60;59.80;;;;;;5075211;28;20062;-86
2022/05/15 11:42:14;;;;;;;7.05;3.03;;;20.70;60.30;;;;;;5075075;28;20032;-86
2022/05/15 11:44:42;;;;;;;;;;;20.90;59.70;;;;;;5061511;28;20382;-88
2022/05/15 11:47:34;;;;;;;5.40;2.38;;;21.10;58.30;;;;;;5075343;28;19912;-90
2022/05/15 11:50:10;;;;;;;7.03;2.60;;;21.60;58.80;;;;;;5075277;28;20093;-87
2022/05/15 11:52:41;;;;;;;8.20;3.03;;;21.90;56.50;;;;;;5076055;28;20024;-87
2022/05/15 11:55:46;;;;;;;4.97;2.30;;;22.00;56.80;;;;;;5076115;28;20023;-88
2022/05/15 11:58:27;;;;;;;6.20;2.30;;;21.80;55.90;;;;;;5074952;28;20109;-91
2022/05/15 12:01:38;;;;;;;4.97;2.25;;;21.60;55.70;;;;;;5076269;28;20028;-88
2022/05/15 12:04:33;;;;;;;6.75;2.38;;;21.40;54.80;;;;;;5075785;28;20498;-87
2022/05/15 12:06:59;;;;;;;3.95;2.20;;;21.20;56.30;;;;;;5030858;28;20040;-88
2022/05/15 12:09:39;;;;;;;3.97;2.40;;;21.00;56.10;;;;;;5074666;28;20494;-88
2022/05/15 12:12:31;;;;;;;;;;;20.90;55.90;;;;;;5074953;28;20017;-92
2022/05/15 12:15:05;;;;;;;6.25;2.30;;;21.40;54.90;;;;;;5075922;28;20255;-93
2022/05/15 12:17:37;;;;;;;4.30;2.10;;;22.20;53.40;;;;;;5074409;28;20041;-86
2022/05/15 12:20:28;;;;;;;5.60;2.50;;;22.60;53.10;;;;;;5074358;28;20028;-86
2022/05/15 12:22:58;;;;;;;4.40;2.78;;;22.70;52.00;;;;;;5073868;28;20027;-86
2022/05/15 12:25:31;;;;;;;4.30;2.42;;;22.60;52.70;;;;;;5071528;28;20083;-86
2022/05/15 12:30:53;;;;;;;4.68;2.20;;;21.90;53.50;;;;;;5055626;28;20387;-88
2022/05/15 12:33:27;;;;;;;4.95;2.15;;;21.90;54.00;;;;;;5056335;28;20025;-88
2022/05/15 12:35:54;;;;;;;5.72;2.42;;;21.90;53.80;;;;;;5062493;28;20494;-87
2022/05/15 12:38:26;;;;;;;5.95;2.72;;;21.90;54.10;;;;;;5064000;28;20028;-88
2022/05/15 12:40:56;;;;;;;8.43;2.38;;;22.00;53.80;;;;;;5063972;28;20026;-86
2022/05/15 12:43:30;;;;;;;5.68;2.10;;;22.60;53.40;;;;;;5064888;28;20112;-87
2022/05/15 12:45:57;;;;;;;4.72;2.13;;;23.50;51.10;;;;;;5065695;28;20086;-86
2022/05/15 12:48:24;;;;;;;8.00;2.30;;;24.00;50.70;;;;;;5062510;28;20017;-85
2022/05/15 12:50:51;;;;;;;4.40;2.50;;;24.80;49.70;;;;;;5066153;28;20053;-85
2022/05/15 12:53:43;;;;;;;4.70;2.47;;;24.90;48.90;;;;;;5062124;28;20044;-87
2022/05/15 12:56:15;;;;;;;3.67;2.17;;;25.20;47.60;;;;;;5056778;28;20024;-86
2022/05/15 12:58:42;;;;;;;5.22;2.10;;;24.70;47.70;;;;;;5063951;28;20020;-87
2022/05/15 13:01:11;;;;;;;4.90;2.00;;;24.30;48.20;;;;;;5062701;28;20044;-86
2022/05/15 13:03:41;;;;;;;4.50;2.33;;;23.60;49.30;;;;;;5061932;28;20032;-88
2022/05/15 13:06:08;;;;;;;4.63;2.20;;;23.10;50.10;;;;;;5063316;28;20032;-89
2022/05/15 13:08:55;;;;;;;3.88;2.30;;;22.40;50.40;;;;;;5063666;28;20017;-93
2022/05/15 13:11:36;;;;;;;5.05;2.47;;;21.90;51.30;;;;;;5058183;28;20025;-91
2022/05/15 13:14:02;;;;;;;3.63;1.95;;;21.50;52.40;;;;;;5062221;28;20463;-85
2022/05/15 13:16:28;;;;;;;3.83;2.33;;;21.40;52.60;;;;;;5065412;28;20035;-90
2022/05/15 13:18:56;;;;;;;4.95;2.30;;;21.10;53.00;;;;;;5058101;28;20471;-86
2022/05/15 13:21:49;;;;;;;6.50;2.47;;;20.90;53.60;;;;;;5054606;28;20029;-87
2022/05/15 13:24:16;;;;;;;5.75;2.60;;;20.80;54.10;;;;;;5056266;28;20032;-88
2022/05/15 13:26:46;;;;;;;4.60;2.72;;;20.90;54.80;;;;;;5053056;28;20115;-90